Las horas y fechas están en horario UTC
Sumar 1 hora en el horario de invierno y 2 en el de verano

Informes METAR cercanos

 

LEZL - Sevilla (civ/Mil, Spain
Distance from station: NNE 24km
Actualización: 27/07/2017 18:00
Despejado
Despejado
 Viento del SO
Viento: SO 19 km/h
Temperatura: 37°C
Rocío: 15°C
Humedad: 27%
Barómetro: 1012 hPa
Resumen: Despejado
Visibility: greater than 10 km
2017/07/27 16:00 LEZL 271600Z 23010KT CAVOK 37/15 Q1012 NOSIG
LEMO - Moron (sp-Usafb), Spain
Distance from station: E 38km
Actualización: 27/07/2017 18:00
Despejado
Despejado
 Viento del O
Viento: O 20 km/h
Temperatura: 36°C
Rocío: 13°C
Humedad: 25%
Barómetro: 1012 hPa
Resumen: Despejado
Visibility: greater than 10 km
2017/07/27 16:00 LEMO 271600Z 27011KT 230V290 CAVOK 36/13 Q1012 NOSIG
LEJR - Jerez (civ/Mil), Spain
Distance from station: S 53km
Actualización: 27/07/2017 18:30
Despejado
Despejado
 Viento del O
Viento: O 17 km/h
Temperatura: 36°C
Rocío: 12°C
Humedad: 23%
Barómetro: 1012 hPa
Resumen: Despejado
Visibility: greater than 10 km
2017/07/27 16:30 LEJR 271630Z 27009KT 220V320 CAVOK 36/12 Q1012
 
LERT - Rota Naval Stati, Spain
Distance from station: SSO 71km
Actualización: 27/07/2017 18:00
Parcialmente nuboso
Parcialmente nuboso
 Viento del O
Viento: O 22 km/h
Temperatura: 30°C
Heat Index: 33°C
Rocío: 21°C
Humedad: 59%
Barómetro: 1013 hPa
Clouds: Parcialmente nuboso
Visibility: 9 km
2017/07/27 16:00 LERT 271600Z 28012KT 250V320 9000 NSC 30/21 Q1013 NOSIG
LEBA - Cordoba Airport, Spain
Distance from station: ENE 128km
Actualización: 27/07/2017 18:00
Despejado
Despejado
 Viento del O
Viento: O 15 km/h
Temperatura: 39°C
Rocío: 7°C
Humedad: 14%
Barómetro: 1011 hPa
Clouds: Despejado
Visibility: 10 km
2017/07/27 16:00 LEBA 271600Z AUTO 27008KT 9999 NCD 39/07 Q1011
LXGB - Gibraltar (civ/M, Gibraltar
Distance from station: SSE 137km
Actualización: 27/07/2017 17:50
Haze, Despejado
Haze, Despejado
 Viento del ENE
Viento: ENE 11 km/h
Temperatura: 25°C
Rocío: 21°C
Humedad: 79%
Barómetro: 1014 hPa
Resumen: Haze
Clouds: Despejado
Visibility: 7 km
2017/07/27 15:50 LXGB 271550Z 07006KT 7000 HZ SKC 25/21 Q1014 NOSIG
 
LEMG - Malaga (civ/Mil), Spain
Distance from station: ESE 150km
Actualización: 27/07/2017 18:00
Despejado
Despejado
 Viento del SE
Viento: SE 19 km/h
Temperatura: 27°C
Heat Index: 29°C
Rocío: 20°C
Humedad: 66%
Barómetro: 1014 hPa
Resumen: Despejado
Visibility: greater than 10 km
2017/07/27 16:00 LEMG 271600Z 13010KT CAVOK 27/20 Q1014 NOSIG
GMTT - Tangier/Boukhalf, Morocco
Distance from station: S 169km
Actualización: 27/07/2017 18:00
Despejado
Despejado
 Viento del ENE
Viento: ENE 26 km/h
Temperatura: 32°C
Heat Index: 33°C
Rocío: 17°C
Humedad: 41%
Barómetro: 1012 hPa
Resumen: Despejado
Visibility: greater than 10 km
2017/07/27 16:00 GMTT 271600Z 07014KT CAVOK 32/17 Q1012 NOSIG
LPFR - Faro, Portugal
Distance from station: O 172km
Actualización: 27/07/2017 18:00
Despejado
Despejado
 Viento del OSO
Viento: OSO 11 km/h
Temperatura: 29°C
Heat Index: 29°C
Rocío: 17°C
Humedad: 48%
Barómetro: 1013 hPa
Resumen: Despejado
Visibility: greater than 10 km
2017/07/27 16:00 LPFR 271600Z 25006KT CAVOK 29/17 Q1013
 
LPBJ - Beja (por/Ger-Af, Portugal
Distance from station: ONO 192km
Actualización: 27/07/2017 18:00
Despejado
Despejado
 Viento del ONO
Viento: ONO 20 km/h
Temperatura: 35°C
Rocío: 5°C
Humedad: 15%
Barómetro: 1014 hPa
Resumen: Despejado
Visibility: greater than 10 km
2017/07/27 16:00 LPBJ 271600Z 30011KT 280V360 CAVOK 35/05 Q1014
LEBZ - Talavera Ab/Bada, Spain
Distance from station: NNO 194km
Actualización: 27/07/2017 18:00
Despejado
Despejado
 Viento del O
Viento: O 19 km/h
Temperatura: 38°C
Rocío: 8°C
Humedad: 16%
Barómetro: 1013 hPa
Resumen: Despejado
Visibility: greater than 10 km
2017/07/27 16:00 LEBZ 271600Z 28010KT 240V310 CAVOK 38/08 Q1013
LEMD - Madrid/Barajas, Spain
Distance from station: NE 415km
Actualización: 27/07/2017 18:00
Despejado
Despejado
 Viento del SO
Viento: SO 13 km/h, Racha: 41 km/h
Temperatura: 37°C
Rocío: 7°C
Humedad: 16%
Barómetro: 1013 hPa
Resumen: Despejado
Visibility: greater than 10 km
2017/07/27 16:00 LEMD 271600Z 22007G22KT 170V300 CAVOK 37/07 Q1013 NOSIG